in

Edelweiss A320 FANTASTIC Landing at Madeira Airport

Edelweiss A320 FANTASTIC Landing at Madeira Airport
Edelweiss A320 FANTASTIC Landing at Madeira Airport

Fantastic landing at Madeira Airport the Edelweiss Airbus A320, in a day with lots of wind with gusts up to 30 knots!

METAR: LPMA 240730Z 02017G30KT 9999 SCT015 18/10 Q1026

#aviation #airport #edelweiss

Date: 22.05.2021 

Hope you like the video!

Also a big thanks to my members:

@Aqzii
@Ranjit Singh
@石毛孝志
@RICHARD Thivierge
@Loris Mazzetto
@Casandra

00:00 Intro
00:05 Edelweiss flight WK284 from Zurich – Airbus A320-214 – HB-IJU

Camera: Panasonic X1500

What do you think?

Written by Pedro Medeiros

Comments

Deixe uma resposta

O seu endereço de email não será publicado. Campos obrigatórios marcados com *

GIPHY App Key not set. Please check settings

    Loading…

    0
    3X Boeing 737 Landing - The return of TUI UK to Madeira Airport

    3X Boeing 737 Landing – The return of TUI UK to Madeira Airport

    13 LANDINGS from 13 Different Spots at Madeira Airport